createdAt,value
2017-04-08T00:00:35.481Z,25
2017-04-08T00:01:43.579Z,25
2017-04-08T00:02:51.680Z,25
2017-04-08T00:03:59.748Z,25
2017-04-08T00:05:07.835Z,25
2017-04-08T00:06:15.920Z,25
2017-04-08T00:07:24.005Z,25
2017-04-08T00:08:32.088Z,25
2017-04-08T00:09:40.448Z,25
2017-04-08T00:10:48.267Z,25
2017-04-08T00:11:56.352Z,25
2017-04-08T00:13:04.446Z,25
2017-04-08T00:14:12.536Z,25
2017-04-08T00:15:20.635Z,25
2017-04-08T00:16:28.720Z,25
2017-04-08T00:17:36.807Z,25
2017-04-08T00:18:44.895Z,25
2017-04-08T00:19:52.970Z,25
2017-04-08T00:21:01.061Z,25
2017-04-08T00:22:09.146Z,25
2017-04-08T00:23:17.231Z,25
2017-04-08T00:24:25.316Z,25
2017-04-08T00:25:33.407Z,25
2017-04-08T00:26:45.242Z,25
2017-04-08T00:27:49.575Z,24
2017-04-08T00:28:57.722Z,24
2017-04-08T00:30:05.760Z,25
2017-04-08T00:31:13.833Z,25
2017-04-08T00:32:21.965Z,25
2017-04-08T00:33:30.006Z,25
2017-04-08T00:34:38.789Z,25
2017-04-08T00:35:46.174Z,25
2017-04-08T00:36:54.262Z,25
2017-04-08T00:38:02.350Z,25
2017-04-08T00:39:10.435Z,25
2017-04-08T00:40:18.517Z,25
2017-04-08T00:41:26.605Z,24
2017-04-08T00:42:36.211Z,25
2017-04-08T00:43:42.837Z,24
2017-04-08T00:44:50.862Z,24
2017-04-08T00:45:58.950Z,25
2017-04-08T00:47:07.031Z,25
2017-04-08T00:48:15.123Z,25
2017-04-08T00:49:23.204Z,24
2017-04-08T00:50:31.292Z,25
2017-04-08T00:51:39.379Z,24
2017-04-08T00:52:47.467Z,25
2017-04-08T00:53:55.554Z,24
2017-04-08T00:55:03.643Z,25
2017-04-08T00:56:11.727Z,25
2017-04-08T00:57:19.826Z,25
2017-04-08T00:58:27.897Z,24
2017-04-08T00:59:35.986Z,25
2017-04-08T01:00:44.321Z,25
2017-04-08T01:01:52.158Z,24
2017-04-08T01:03:00.239Z,24
2017-04-08T01:04:08.444Z,25
2017-04-08T01:05:16.421Z,24
2017-04-08T01:06:24.498Z,25
2017-04-08T01:07:32.586Z,24
2017-04-08T01:08:40.671Z,24
2017-04-08T01:09:48.757Z,24
2017-04-08T01:10:56.839Z,24
2017-04-08T01:12:04.928Z,24
2017-04-08T01:13:13.015Z,24
2017-04-08T01:14:21.106Z,25
2017-04-08T01:15:29.196Z,25
2017-04-08T01:16:37.273Z,24
2017-04-08T01:17:45.362Z,24
2017-04-08T01:18:53.462Z,24
2017-04-08T01:20:01.530Z,24
2017-04-08T01:21:09.622Z,24
2017-04-08T01:22:17.704Z,24
2017-04-08T01:23:25.787Z,24
2017-04-08T01:24:33.930Z,24
2017-04-08T01:25:41.968Z,24
2017-04-08T01:26:50.051Z,24
2017-04-08T01:27:58.143Z,24
2017-04-08T01:29:06.569Z,24
2017-04-08T01:30:14.314Z,24
2017-04-08T01:31:22.403Z,24
2017-04-08T01:32:30.517Z,24
2017-04-08T01:33:38.575Z,24
2017-04-08T01:34:46.663Z,24
2017-04-08T01:35:54.752Z,24
2017-04-08T01:37:02.839Z,24
2017-04-08T01:38:10.923Z,24
2017-04-08T01:39:19.008Z,24
2017-04-08T01:40:27.095Z,24
2017-04-08T01:41:35.184Z,25
2017-04-08T01:42:43.263Z,24
2017-04-08T01:43:51.351Z,25
2017-04-08T01:44:59.442Z,24
2017-04-08T01:46:07.528Z,24
2017-04-08T01:47:15.619Z,24
2017-04-08T01:48:23.703Z,24
2017-04-08T01:49:31.831Z,24
2017-04-08T01:50:39.872Z,24
2017-04-08T01:51:47.966Z,24
2017-04-08T01:52:56.047Z,24
2017-04-08T01:54:04.131Z,24
2017-04-08T01:55:12.226Z,24
2017-04-08T01:56:20.309Z,24
2017-04-08T01:57:28.388Z,24
2017-04-08T01:58:36.474Z,24
2017-04-08T01:59:44.562Z,24
2017-04-08T02:00:52.652Z,24
2017-04-08T02:02:00.734Z,24
2017-04-08T02:03:08.826Z,24
2017-04-08T02:04:16.911Z,24
2017-04-08T02:05:25.000Z,24
2017-04-08T02:06:33.091Z,24
2017-04-08T02:07:41.181Z,24
2017-04-08T02:08:49.268Z,24
2017-04-08T02:09:57.355Z,24
2017-04-08T02:11:05.448Z,24
2017-04-08T02:12:13.536Z,24
2017-04-08T02:13:21.620Z,24
2017-04-08T02:14:29.705Z,24
2017-04-08T02:15:37.791Z,24
2017-04-08T02:16:45.886Z,24
2017-04-08T02:17:53.977Z,24
2017-04-08T02:19:02.062Z,24
2017-04-08T02:20:10.147Z,24
2017-04-08T02:21:18.232Z,24
2017-04-08T02:22:26.319Z,24
2017-04-08T02:23:34.411Z,24
2017-04-08T02:24:42.496Z,24
2017-04-08T02:25:50.580Z,24
2017-04-08T02:26:58.668Z,24
2017-04-08T02:28:06.756Z,24
2017-04-08T02:29:14.841Z,24
2017-04-08T02:30:22.924Z,24
2017-04-08T02:31:31.025Z,24
2017-04-08T02:32:39.118Z,24
2017-04-08T02:33:47.201Z,24
2017-04-08T02:34:55.294Z,24
2017-04-08T02:36:03.381Z,24
2017-04-08T02:37:11.470Z,24
2017-04-08T02:38:19.555Z,24
2017-04-08T02:39:27.643Z,24
2017-04-08T02:40:35.726Z,24
2017-04-08T02:41:43.815Z,24
2017-04-08T02:42:51.897Z,24
2017-04-08T02:43:59.984Z,24
2017-04-08T02:45:08.070Z,24
2017-04-08T02:46:16.158Z,24
2017-04-08T02:47:24.256Z,24
2017-04-08T02:48:32.338Z,24
2017-04-08T02:49:40.422Z,24
2017-04-08T02:50:48.511Z,24
2017-04-08T02:51:56.600Z,24
2017-04-08T02:53:04.685Z,24
2017-04-08T02:54:12.769Z,24
2017-04-08T02:55:20.863Z,24
2017-04-08T02:56:28.949Z,24
2017-04-08T02:57:37.029Z,24
2017-04-08T02:58:45.120Z,24
2017-04-08T02:59:53.206Z,24
2017-04-08T03:01:01.290Z,24
2017-04-08T03:02:09.379Z,24
2017-04-08T03:03:17.464Z,24
2017-04-08T03:04:25.552Z,24
2017-04-08T03:05:33.634Z,24
2017-04-08T03:06:41.783Z,24
2017-04-08T03:07:49.822Z,24
2017-04-08T03:08:57.904Z,24
2017-04-08T03:10:06.000Z,24
2017-04-08T03:11:14.081Z,24
2017-04-08T03:12:22.169Z,24
2017-04-08T03:13:30.252Z,24
2017-04-08T03:14:38.340Z,24
2017-04-08T03:15:46.431Z,24
2017-04-08T03:16:54.516Z,24
2017-04-08T03:18:02.603Z,24
2017-04-08T03:19:10.686Z,24
2017-04-08T03:20:18.778Z,24
2017-04-08T03:21:26.864Z,24
2017-04-08T03:22:34.951Z,24
2017-04-08T03:23:43.033Z,24
2017-04-08T03:24:51.119Z,24
2017-04-08T03:25:59.207Z,24
2017-04-08T03:27:07.302Z,24
2017-04-08T03:28:15.383Z,24
2017-04-08T03:29:23.464Z,24
2017-04-08T03:30:31.560Z,24
2017-04-08T03:31:39.648Z,24
2017-04-08T03:32:47.732Z,24
2017-04-08T03:33:55.823Z,24
2017-04-08T03:35:03.908Z,24
2017-04-08T03:36:11.992Z,24
2017-04-08T03:37:20.079Z,24
2017-04-08T03:38:28.167Z,24
2017-04-08T03:39:36.251Z,24
2017-04-08T03:40:44.333Z,24
2017-04-08T03:41:52.429Z,24
2017-04-08T03:43:00.513Z,24
2017-04-08T03:44:08.608Z,24
2017-04-08T03:45:16.688Z,24
2017-04-08T03:46:24.780Z,24
2017-04-08T03:47:32.857Z,24
2017-04-08T03:48:40.947Z,24
2017-04-08T03:49:49.042Z,24
2017-04-08T03:50:57.134Z,24
2017-04-08T03:52:05.226Z,24
2017-04-08T03:53:13.315Z,24
2017-04-08T03:54:21.394Z,24
2017-04-08T03:55:29.477Z,24
2017-04-08T03:56:37.559Z,24
2017-04-08T03:57:45.650Z,24
2017-04-08T03:58:53.737Z,24
2017-04-08T04:00:01.822Z,24
2017-04-08T04:01:09.988Z,24
2017-04-08T04:02:17.993Z,24
2017-04-08T04:03:26.085Z,24
2017-04-08T04:04:34.163Z,24
2017-04-08T04:05:42.277Z,24
2017-04-08T04:06:50.337Z,24
2017-04-08T04:07:58.417Z,24
2017-04-08T04:09:06.505Z,24
2017-04-08T04:10:14.593Z,24
2017-04-08T04:11:22.675Z,24
2017-04-08T04:12:30.763Z,24
2017-04-08T04:13:38.856Z,24
2017-04-08T04:14:46.933Z,24
2017-04-08T04:15:55.021Z,24
2017-04-08T04:17:03.106Z,24
2017-04-08T04:18:11.216Z,24
2017-04-08T04:19:19.280Z,24
2017-04-08T04:20:27.362Z,24
2017-04-08T04:21:35.452Z,24
2017-04-08T04:22:43.538Z,24
2017-04-08T04:23:51.621Z,24
2017-04-08T04:24:59.705Z,24
2017-04-08T04:26:07.791Z,24
2017-04-08T04:27:15.878Z,24
2017-04-08T04:28:23.966Z,24
2017-04-08T04:29:32.061Z,24
2017-04-08T04:30:40.136Z,24
2017-04-08T04:31:48.217Z,24
2017-04-08T04:32:56.306Z,24
2017-04-08T04:34:04.396Z,24
2017-04-08T04:35:12.556Z,24
2017-04-08T04:36:20.560Z,24
2017-04-08T04:37:28.649Z,24
2017-04-08T04:38:36.733Z,24
2017-04-08T04:39:44.816Z,24
2017-04-08T04:40:52.911Z,24
2017-04-08T04:42:00.991Z,24
2017-04-08T04:43:09.074Z,24
2017-04-08T04:44:17.155Z,24
2017-04-08T04:45:25.245Z,24
2017-04-08T04:46:33.329Z,24
2017-04-08T04:47:41.412Z,24
2017-04-08T04:48:49.503Z,24
2017-04-08T04:49:57.585Z,24
2017-04-08T04:51:05.669Z,24
2017-04-08T04:52:13.756Z,24
2017-04-08T04:53:21.841Z,24
2017-04-08T04:54:29.927Z,24
2017-04-08T04:55:38.007Z,24
2017-04-08T04:56:46.100Z,24
2017-04-08T04:57:54.185Z,24
2017-04-08T04:59:02.265Z,24
2017-04-08T05:00:10.353Z,24
2017-04-08T05:01:18.438Z,24
2017-04-08T05:02:26.525Z,24
2017-04-08T05:03:34.604Z,24
2017-04-08T05:04:42.694Z,24
2017-04-08T05:05:50.777Z,24
2017-04-08T05:06:58.863Z,24
2017-04-08T05:08:06.946Z,24
2017-04-08T05:09:15.031Z,24
2017-04-08T05:10:23.113Z,24
2017-04-08T05:11:31.206Z,24
2017-04-08T05:12:39.292Z,24
2017-04-08T05:13:47.375Z,24
2017-04-08T05:14:55.460Z,24
2017-04-08T05:16:03.546Z,24
2017-04-08T05:17:11.630Z,24
2017-04-08T05:18:19.713Z,24
2017-04-08T05:19:27.794Z,24
2017-04-08T05:20:35.880Z,24
2017-04-08T05:21:43.967Z,24
2017-04-08T05:22:52.049Z,24
2017-04-08T05:24:00.135Z,24
2017-04-08T05:25:08.224Z,24
2017-04-08T05:26:16.307Z,24
2017-04-08T05:27:24.396Z,24
2017-04-08T05:28:32.482Z,24
2017-04-08T05:29:40.565Z,24
2017-04-08T05:30:48.648Z,24
2017-04-08T05:31:56.735Z,24
2017-04-08T05:33:04.823Z,24
2017-04-08T05:34:12.904Z,24
2017-04-08T05:35:20.989Z,24
2017-04-08T05:36:29.080Z,24
2017-04-08T05:37:37.166Z,24
2017-04-08T05:38:45.246Z,24
2017-04-08T05:39:53.338Z,24
2017-04-08T05:41:01.422Z,24
2017-04-08T05:42:09.508Z,24
2017-04-08T05:43:17.592Z,23
2017-04-08T05:44:25.678Z,24
2017-04-08T05:45:33.768Z,23
2017-04-08T05:46:41.849Z,24
2017-04-08T05:47:49.939Z,24
2017-04-08T05:48:58.019Z,24
2017-04-08T05:50:06.103Z,24
2017-04-08T05:51:14.184Z,24
2017-04-08T05:52:22.273Z,24
2017-04-08T05:53:30.359Z,24
2017-04-08T05:54:38.437Z,24
2017-04-08T05:55:46.527Z,23
2017-04-08T05:56:54.616Z,24
2017-04-08T05:58:02.693Z,24
2017-04-08T05:59:10.775Z,24
2017-04-08T06:00:18.864Z,24
2017-04-08T06:01:26.949Z,24
2017-04-08T06:02:35.034Z,24
2017-04-08T06:03:43.123Z,24
2017-04-08T06:04:51.206Z,24
2017-04-08T06:05:59.322Z,24
2017-04-08T06:07:07.380Z,24
2017-04-08T06:08:15.463Z,24
2017-04-08T06:09:23.548Z,24
2017-04-08T06:10:31.628Z,24
2017-04-08T06:11:39.716Z,24
2017-04-08T06:12:47.798Z,24
2017-04-08T06:13:55.885Z,24
2017-04-08T06:15:03.968Z,24
2017-04-08T06:16:12.053Z,24
2017-04-08T06:17:20.136Z,24
2017-04-08T06:18:28.219Z,24
2017-04-08T06:19:36.306Z,24
2017-04-08T06:20:44.391Z,24
2017-04-08T06:21:52.482Z,24
2017-04-08T06:23:00.561Z,24
2017-04-08T06:24:08.646Z,24
2017-04-08T06:25:16.730Z,24
2017-04-08T06:26:24.814Z,24
2017-04-08T06:27:33.010Z,24
2017-04-08T06:28:40.988Z,24
2017-04-08T06:29:49.074Z,24
2017-04-08T06:30:57.155Z,24
2017-04-08T06:32:05.246Z,24
2017-04-08T06:33:13.326Z,24
2017-04-08T06:34:21.506Z,24
2017-04-08T06:35:29.518Z,24
2017-04-08T06:36:37.586Z,24
2017-04-08T06:37:45.666Z,24
2017-04-08T06:38:53.755Z,24
2017-04-08T06:40:01.841Z,24
2017-04-08T06:41:09.932Z,24
2017-04-08T06:42:18.015Z,24
2017-04-08T06:43:26.100Z,25
2017-04-08T06:44:34.185Z,25
2017-04-08T06:45:42.269Z,25
2017-04-08T06:46:50.353Z,25
2017-04-08T06:47:58.435Z,25
2017-04-08T06:49:06.520Z,25
2017-04-08T06:50:14.613Z,25
2017-04-08T06:51:22.742Z,25
2017-04-08T06:52:30.786Z,25
2017-04-08T06:53:38.879Z,25
2017-04-08T06:54:46.952Z,25
2017-04-08T06:55:55.037Z,25
2017-04-08T06:57:03.118Z,25
2017-04-08T06:58:11.201Z,25
2017-04-08T06:59:19.291Z,25
2017-04-08T07:00:27.373Z,25
2017-04-08T07:01:35.458Z,25
2017-04-08T07:02:43.547Z,25
2017-04-08T07:03:51.632Z,25
2017-04-08T07:04:59.715Z,25
2017-04-08T07:06:07.797Z,25
2017-04-08T07:07:15.887Z,25
2017-04-08T07:08:24.049Z,25
2017-04-08T07:09:32.056Z,25
2017-04-08T07:10:40.147Z,25
2017-04-08T07:11:48.228Z,25
2017-04-08T07:12:56.310Z,25
2017-04-08T07:14:04.396Z,25
2017-04-08T07:15:12.483Z,25
2017-04-08T07:16:20.568Z,25
2017-04-08T07:17:28.644Z,25
2017-04-08T07:18:36.732Z,25
2017-04-08T07:19:44.825Z,25
2017-04-08T07:20:52.974Z,26
2017-04-08T07:20:52.986Z,26
2017-04-08T07:22:00.998Z,26
2017-04-08T07:23:09.071Z,26
2017-04-08T07:24:17.154Z,26
2017-04-08T07:25:25.306Z,26
2017-04-08T07:26:33.327Z,26
2017-04-08T07:27:41.411Z,26
2017-04-08T07:28:49.527Z,26
2017-04-08T07:29:57.582Z,26
2017-04-08T07:31:05.661Z,26
2017-04-08T07:32:13.748Z,26
2017-04-08T07:33:21.835Z,26
2017-04-08T07:34:29.917Z,26
2017-04-08T07:35:38.000Z,26
2017-04-08T07:36:46.083Z,26
2017-04-08T07:37:54.218Z,26
2017-04-08T07:39:02.256Z,27
2017-04-08T07:40:10.342Z,27
2017-04-08T07:41:18.420Z,26
2017-04-08T07:42:26.589Z,26
2017-04-08T07:43:34.695Z,26
2017-04-08T07:44:42.675Z,26
2017-04-08T07:45:50.768Z,27
2017-04-08T07:46:58.849Z,27
2017-04-08T07:48:06.933Z,26
2017-04-08T07:49:15.018Z,26
2017-04-08T07:50:23.107Z,26
2017-04-08T07:51:31.191Z,27
2017-04-08T07:52:39.337Z,26
2017-04-08T07:53:47.360Z,26
2017-04-08T07:54:55.465Z,27
2017-04-08T07:56:03.527Z,27
2017-04-08T07:57:11.609Z,27
2017-04-08T07:58:19.694Z,27
2017-04-08T07:59:27.776Z,27
2017-04-08T08:00:35.860Z,27
2017-04-08T08:01:43.949Z,27
2017-04-08T08:02:52.032Z,27
2017-04-08T08:04:00.124Z,27
2017-04-08T08:05:08.204Z,27
2017-04-08T08:06:16.292Z,27
2017-04-08T08:07:24.462Z,27
2017-04-08T08:08:32.976Z,28
2017-04-08T08:09:40.547Z,28
2017-04-08T08:10:49.141Z,28
2017-04-08T08:11:56.722Z,28
2017-04-08T08:13:04.799Z,28
2017-04-08T08:14:12.897Z,28
2017-04-08T08:15:21.626Z,28
2017-04-08T08:16:29.120Z,28
2017-04-08T08:17:37.137Z,28
2017-04-08T08:18:45.221Z,28
2017-04-08T08:19:53.741Z,28
2017-04-08T08:21:01.437Z,28
2017-04-08T08:22:09.481Z,28
2017-04-08T08:23:17.563Z,28
2017-04-08T08:24:25.647Z,29
2017-04-08T08:25:33.735Z,28
2017-04-08T08:26:41.822Z,28
2017-04-08T08:27:49.909Z,28
2017-04-08T08:28:57.992Z,28
2017-04-08T08:30:06.076Z,28
2017-04-08T08:31:14.157Z,28
2017-04-08T08:32:22.236Z,28
2017-04-08T08:33:30.327Z,28
2017-04-08T08:34:38.406Z,28
2017-04-08T08:35:46.489Z,28
2017-04-08T08:36:54.580Z,28
2017-04-08T08:38:02.665Z,29
2017-04-08T08:39:10.751Z,29
2017-04-08T08:40:18.830Z,29
2017-04-08T08:41:26.922Z,29
2017-04-08T08:42:35.006Z,29
2017-04-08T08:43:43.087Z,29
2017-04-08T08:44:51.172Z,30
2017-04-08T08:45:59.257Z,30
2017-04-08T08:47:07.342Z,29
2017-04-08T08:48:15.418Z,29
2017-04-08T08:49:23.506Z,29
2017-04-08T08:50:31.589Z,29
2017-04-08T08:51:39.672Z,29
2017-04-08T08:52:47.757Z,29
2017-04-08T08:53:55.843Z,29
2017-04-08T08:55:03.926Z,29
2017-04-08T08:56:12.008Z,29
2017-04-08T08:57:20.100Z,29
2017-04-08T08:58:28.172Z,29
2017-04-08T08:59:36.254Z,29
2017-04-08T09:00:44.342Z,29
2017-04-08T09:01:52.431Z,29
2017-04-08T09:03:00.511Z,29
2017-04-08T09:04:08.596Z,29
2017-04-08T09:05:16.682Z,29
2017-04-08T09:06:24.767Z,29
2017-04-08T09:07:32.847Z,30
2017-04-08T09:08:40.934Z,30
2017-04-08T09:09:49.015Z,30
2017-04-08T09:10:57.095Z,29
2017-04-08T09:12:05.183Z,29
2017-04-08T09:13:13.267Z,29
2017-04-08T09:14:21.352Z,30
2017-04-08T09:15:29.433Z,30
2017-04-08T09:16:37.517Z,30
2017-04-08T09:17:45.604Z,30
2017-04-08T09:18:53.689Z,30
2017-04-08T09:20:01.771Z,30
2017-04-08T09:21:09.852Z,30
2017-04-08T09:22:17.935Z,30
2017-04-08T09:23:26.013Z,30
2017-04-08T09:24:34.104Z,30
2017-04-08T09:25:42.186Z,30
2017-04-08T09:26:50.267Z,30
2017-04-08T09:27:58.355Z,30
2017-04-08T09:29:06.441Z,30
2017-04-08T09:30:14.527Z,29
2017-04-08T09:31:22.605Z,29
2017-04-08T09:32:30.694Z,29
2017-04-08T09:33:38.775Z,30
2017-04-08T09:34:46.854Z,30
2017-04-08T09:35:54.941Z,30
2017-04-08T09:37:03.032Z,31
2017-04-08T09:38:11.104Z,31
2017-04-08T09:39:19.188Z,30
2017-04-08T09:40:27.276Z,30
2017-04-08T09:41:35.363Z,30
2017-04-08T09:42:43.443Z,31
2017-04-08T09:43:51.813Z,31
2017-04-08T09:44:59.614Z,30
2017-04-08T09:46:07.696Z,31
2017-04-08T09:47:15.778Z,31
2017-04-08T09:48:23.870Z,31
2017-04-08T09:49:31.951Z,30
2017-04-08T09:50:40.032Z,30
2017-04-08T09:51:48.125Z,30
2017-04-08T09:52:56.203Z,30
2017-04-08T09:54:04.291Z,30
2017-04-08T09:55:12.369Z,31
2017-04-08T09:56:20.457Z,30
2017-04-08T09:57:28.539Z,30
2017-04-08T09:58:36.618Z,31
2017-04-08T09:59:44.708Z,31
2017-04-08T10:00:52.790Z,30
2017-04-08T10:02:00.873Z,31
2017-04-08T10:03:08.985Z,30
2017-04-08T10:04:17.042Z,31
2017-04-08T10:05:25.124Z,31
2017-04-08T10:06:33.205Z,31
2017-04-08T10:07:41.295Z,31
2017-04-08T10:08:49.378Z,31
2017-04-08T10:09:57.468Z,31
2017-04-08T10:11:05.549Z,30
2017-04-08T10:12:13.635Z,30
2017-04-08T10:13:21.725Z,30
2017-04-08T10:14:29.804Z,30
2017-04-08T10:15:37.891Z,31
2017-04-08T10:16:45.974Z,31
2017-04-08T10:17:54.059Z,31
2017-04-08T10:19:02.142Z,31
2017-04-08T10:20:10.227Z,31
2017-04-08T10:21:18.571Z,31
2017-04-08T10:22:26.413Z,32
2017-04-08T10:23:34.509Z,31
2017-04-08T10:24:42.560Z,31
2017-04-08T10:25:50.641Z,31
2017-04-08T10:26:58.733Z,32
2017-04-08T10:28:06.857Z,32
2017-04-08T10:29:14.900Z,32
2017-04-08T10:30:22.982Z,32
2017-04-08T10:31:31.069Z,32
2017-04-08T10:32:39.189Z,32
2017-04-08T10:33:47.244Z,32
2017-04-08T10:34:55.326Z,31
2017-04-08T10:36:03.410Z,32
2017-04-08T10:37:11.487Z,32
2017-04-08T10:38:19.569Z,32
2017-04-08T10:39:27.658Z,32
2017-04-08T10:40:35.746Z,32
2017-04-08T10:41:43.831Z,31
2017-04-08T10:42:51.914Z,31
2017-04-08T10:43:59.999Z,32
2017-04-08T10:45:08.084Z,31
2017-04-08T10:46:16.161Z,32
2017-04-08T10:47:24.252Z,32
2017-04-08T10:48:32.329Z,32
2017-04-08T10:49:40.411Z,32
2017-04-08T10:50:48.498Z,32
2017-04-08T10:51:56.584Z,32
2017-04-08T10:53:04.668Z,32
2017-04-08T10:54:12.749Z,32
2017-04-08T10:55:20.834Z,32
2017-04-08T10:56:28.919Z,32
2017-04-08T10:57:36.997Z,32
2017-04-08T10:58:45.084Z,32
2017-04-08T10:59:53.167Z,32
2017-04-08T11:01:01.247Z,33
2017-04-08T11:02:09.336Z,33
2017-04-08T11:03:17.422Z,32
2017-04-08T11:04:25.506Z,32
2017-04-08T11:05:33.586Z,32
2017-04-08T11:06:41.676Z,32
2017-04-08T11:07:49.758Z,32
2017-04-08T11:08:57.837Z,32
2017-04-08T11:10:05.926Z,32
2017-04-08T11:11:14.009Z,33
2017-04-08T11:12:22.086Z,33
2017-04-08T11:13:30.170Z,33
2017-04-08T11:14:38.277Z,33
2017-04-08T11:15:46.358Z,32
2017-04-08T11:16:54.433Z,32
2017-04-08T11:18:02.518Z,32
2017-04-08T11:19:10.603Z,32
2017-04-08T11:20:18.687Z,32
2017-04-08T11:21:26.766Z,32
2017-04-08T11:22:34.854Z,32
2017-04-08T11:23:42.939Z,32
2017-04-08T11:24:51.026Z,32
2017-04-08T11:25:59.118Z,32
2017-04-08T11:27:07.196Z,32
2017-04-08T11:28:15.282Z,32
2017-04-08T11:29:23.365Z,32
2017-04-08T11:30:31.446Z,31
2017-04-08T11:31:39.616Z,31
2017-04-08T11:32:47.609Z,31
2017-04-08T11:33:55.698Z,31
2017-04-08T11:35:03.782Z,31
2017-04-08T11:36:11.866Z,32
2017-04-08T11:37:20.628Z,32
2017-04-08T11:38:28.033Z,32
2017-04-08T11:39:36.118Z,32
2017-04-08T11:40:44.202Z,32
2017-04-08T11:41:52.284Z,32
2017-04-08T11:43:00.366Z,32
2017-04-08T11:44:08.446Z,32
2017-04-08T11:45:16.536Z,31
2017-04-08T11:46:24.622Z,31
2017-04-08T11:47:32.709Z,31
2017-04-08T11:48:40.819Z,31
2017-04-08T11:49:48.886Z,31
2017-04-08T11:50:56.967Z,31
2017-04-08T11:52:05.052Z,30
2017-04-08T11:53:13.132Z,31
2017-04-08T11:54:21.221Z,31
2017-04-08T11:55:29.306Z,31
2017-04-08T11:56:37.384Z,30
2017-04-08T11:57:45.475Z,30
2017-04-08T11:58:53.558Z,31
2017-04-08T12:00:01.642Z,30
2017-04-08T12:01:09.723Z,30
2017-04-08T12:02:17.810Z,30
2017-04-08T12:03:25.895Z,30
2017-04-08T12:04:33.975Z,30
2017-04-08T12:05:42.145Z,30
2017-04-08T12:06:50.155Z,30
2017-04-08T12:07:58.231Z,29
2017-04-08T12:09:06.324Z,29
2017-04-08T12:10:14.410Z,29
2017-04-08T12:11:22.495Z,29
2017-04-08T12:12:30.580Z,29
2017-04-08T12:13:38.668Z,29
2017-04-08T12:14:46.754Z,28
2017-04-08T12:15:54.840Z,29
2017-04-08T12:17:02.921Z,29
2017-04-08T12:18:11.007Z,29
2017-04-08T12:19:19.097Z,30
2017-04-08T12:20:27.178Z,29
2017-04-08T12:21:35.261Z,29
2017-04-08T12:22:43.342Z,29
2017-04-08T12:23:51.427Z,30
2017-04-08T12:24:59.523Z,29
2017-04-08T12:26:07.613Z,29
2017-04-08T12:27:15.703Z,29
2017-04-08T12:28:23.791Z,29
2017-04-08T12:29:31.881Z,29
2017-04-08T12:30:39.965Z,29
2017-04-08T12:31:48.049Z,29
2017-04-08T12:32:56.139Z,28
2017-04-08T12:34:04.220Z,28
2017-04-08T12:35:12.304Z,28
2017-04-08T12:36:20.386Z,28
2017-04-08T12:37:28.473Z,28
2017-04-08T12:38:36.558Z,28
2017-04-08T12:39:44.638Z,27
2017-04-08T12:40:52.725Z,27
2017-04-08T12:42:00.810Z,27
2017-04-08T12:43:08.902Z,27
2017-04-08T12:44:16.980Z,26
2017-04-08T12:45:25.066Z,26
2017-04-08T12:46:33.149Z,26
2017-04-08T12:47:41.241Z,26
2017-04-08T12:48:49.321Z,27
2017-04-08T12:49:57.407Z,27
2017-04-08T12:51:05.500Z,27
2017-04-08T12:52:13.705Z,27
2017-04-08T12:53:21.671Z,27
2017-04-08T12:54:29.757Z,27
2017-04-08T12:55:37.839Z,27
2017-04-08T12:56:45.930Z,27
2017-04-08T12:57:54.012Z,27
2017-04-08T12:59:02.096Z,27
2017-04-08T13:00:10.184Z,27
2017-04-08T13:01:18.273Z,27
2017-04-08T13:02:26.358Z,27
2017-04-08T13:03:34.436Z,27
2017-04-08T13:04:42.530Z,26
2017-04-08T13:05:50.615Z,26
2017-04-08T13:06:58.704Z,26
2017-04-08T13:08:06.785Z,26
2017-04-08T13:09:14.869Z,26
2017-04-08T13:10:22.949Z,27
2017-04-08T13:11:31.029Z,27
2017-04-08T13:12:39.119Z,27
2017-04-08T13:13:47.224Z,27
2017-04-08T13:14:55.286Z,27
2017-04-08T13:16:03.373Z,27
2017-04-08T13:17:11.456Z,27
2017-04-08T13:18:19.541Z,27
2017-04-08T13:19:27.623Z,27
2017-04-08T13:20:35.714Z,27
2017-04-08T13:21:43.796Z,27
2017-04-08T13:22:51.880Z,27
2017-04-08T13:23:59.965Z,27
2017-04-08T13:25:08.048Z,26
2017-04-08T13:26:16.133Z,26
2017-04-08T13:27:24.214Z,26
2017-04-08T13:28:32.305Z,26
2017-04-08T13:29:40.385Z,26
2017-04-08T13:30:48.469Z,26
2017-04-08T13:31:56.554Z,27
2017-04-08T13:33:04.636Z,27
2017-04-08T13:34:12.719Z,27
2017-04-08T13:35:20.810Z,27
2017-04-08T13:36:28.892Z,27
2017-04-08T13:37:36.976Z,27
2017-04-08T13:38:45.056Z,27
2017-04-08T13:39:53.144Z,27
2017-04-08T13:41:01.228Z,27
2017-04-08T13:42:09.312Z,27
2017-04-08T13:43:17.394Z,27
2017-04-08T13:44:25.482Z,27
2017-04-08T13:45:33.568Z,27
2017-04-08T13:46:41.646Z,27
2017-04-08T13:47:49.737Z,27
2017-04-08T13:48:57.820Z,27
2017-04-08T13:50:05.902Z,27
2017-04-08T13:51:13.985Z,27
2017-04-08T13:52:22.074Z,27
2017-04-08T13:53:30.157Z,27
2017-04-08T13:54:38.239Z,27
2017-04-08T13:55:46.327Z,28
2017-04-08T13:56:54.409Z,28
2017-04-08T13:58:02.488Z,28
2017-04-08T13:59:10.576Z,28
2017-04-08T14:00:18.669Z,28
2017-04-08T14:01:26.752Z,28
2017-04-08T14:02:34.833Z,28
2017-04-08T14:03:42.920Z,28
2017-04-08T14:04:51.012Z,28
2017-04-08T14:05:59.087Z,28
2017-04-08T14:07:07.173Z,28
2017-04-08T14:08:15.291Z,28
2017-04-08T14:09:23.337Z,28
2017-04-08T14:10:31.423Z,28
2017-04-08T14:11:39.513Z,28
2017-04-08T14:12:47.595Z,28
2017-04-08T14:13:55.676Z,28
2017-04-08T14:15:03.764Z,28
2017-04-08T14:16:11.848Z,28
2017-04-08T14:17:19.937Z,29
2017-04-08T14:18:28.022Z,29
2017-04-08T14:19:36.162Z,29
2017-04-08T14:20:44.207Z,29
2017-04-08T14:21:52.287Z,29
2017-04-08T14:23:00.376Z,29
2017-04-08T14:24:08.460Z,28
2017-04-08T14:25:16.543Z,28
2017-04-08T14:26:24.625Z,28
2017-04-08T14:27:32.712Z,28
2017-04-08T14:28:40.798Z,28
2017-04-08T14:29:48.882Z,28
2017-04-08T14:30:56.965Z,28
2017-04-08T14:32:05.050Z,28
2017-04-08T14:33:13.140Z,29
2017-04-08T14:34:21.222Z,28
2017-04-08T14:35:29.307Z,28
2017-04-08T14:36:37.393Z,28
2017-04-08T14:37:45.472Z,28
2017-04-08T14:38:53.561Z,29
2017-04-08T14:40:01.643Z,28
2017-04-08T14:41:09.728Z,28
2017-04-08T14:42:17.809Z,28
2017-04-08T14:43:25.900Z,28
2017-04-08T14:44:33.984Z,28
2017-04-08T14:45:42.066Z,28
2017-04-08T14:46:50.154Z,28
2017-04-08T14:47:58.240Z,28
2017-04-08T14:49:06.328Z,28
2017-04-08T14:50:14.406Z,29
2017-04-08T14:51:22.511Z,29
2017-04-08T14:52:30.577Z,28
2017-04-08T14:53:38.661Z,28
2017-04-08T14:54:46.746Z,28
2017-04-08T14:55:54.832Z,28
2017-04-08T14:57:02.914Z,28
2017-04-08T14:58:11.002Z,28
2017-04-08T14:59:19.089Z,28
2017-04-08T15:00:27.183Z,27
2017-04-08T15:01:35.269Z,28
2017-04-08T15:02:43.363Z,28
2017-04-08T15:03:51.446Z,28
2017-04-08T15:04:59.530Z,28
2017-04-08T15:06:07.615Z,28
2017-04-08T15:07:15.697Z,28
2017-04-08T15:08:23.817Z,28
2017-04-08T15:09:31.863Z,28
2017-04-08T15:10:39.951Z,28
2017-04-08T15:11:48.034Z,28
2017-04-08T15:12:56.116Z,28
2017-04-08T15:14:04.204Z,28
2017-04-08T15:15:12.290Z,28
2017-04-08T15:16:20.376Z,28
2017-04-08T15:17:28.454Z,28
2017-04-08T15:18:36.549Z,28
2017-04-08T15:19:44.630Z,28
2017-04-08T15:20:52.714Z,28
2017-04-08T15:22:00.805Z,28
2017-04-08T15:23:08.888Z,28
2017-04-08T15:24:16.970Z,28
2017-04-08T15:25:25.102Z,28
2017-04-08T15:26:33.147Z,28
2017-04-08T15:27:41.233Z,28
2017-04-08T15:28:49.318Z,28
2017-04-08T15:29:57.401Z,28
2017-04-08T15:31:05.487Z,28
2017-04-08T15:32:13.574Z,28
2017-04-08T15:33:21.656Z,28
2017-04-08T15:34:29.745Z,28
2017-04-08T15:35:37.833Z,28
2017-04-08T15:36:45.917Z,28
2017-04-08T15:37:54.005Z,27
2017-04-08T15:39:02.096Z,28
2017-04-08T15:40:10.173Z,28
2017-04-08T15:41:18.255Z,28
2017-04-08T15:42:26.351Z,28
2017-04-08T15:43:34.443Z,28
2017-04-08T15:44:42.515Z,28
2017-04-08T15:45:50.602Z,28
2017-04-08T15:46:58.688Z,28
2017-04-08T15:48:06.768Z,28
2017-04-08T15:49:14.859Z,28
2017-04-08T15:50:22.948Z,28
2017-04-08T15:51:31.032Z,28
2017-04-08T15:52:39.105Z,28
2017-04-08T15:53:47.198Z,28
2017-04-08T15:54:55.281Z,28
2017-04-08T15:56:03.368Z,28
2017-04-08T15:57:11.450Z,28
2017-04-08T15:58:19.544Z,28
2017-04-08T15:59:27.629Z,28
2017-04-08T16:00:35.713Z,28
2017-04-08T16:01:43.801Z,28
2017-04-08T16:02:51.886Z,28
2017-04-08T16:03:59.973Z,28
2017-04-08T16:05:08.055Z,28
2017-04-08T16:06:16.141Z,28
2017-04-08T16:07:24.230Z,28
2017-04-08T16:08:32.311Z,28
2017-04-08T16:09:40.414Z,28